Time;durP1;ratioP1;P1;durP2;ratioP2;P2;SDS_P1;SDS_P2;PMS_P1;PMS_P2;Temp;Humidity;BMP_temperature;BMP_pressure;BME280_temperature;BME280_humidity;BME280_pressure;Samples;Min_cycle;Max_cycle;Signal;HPM_P1;HPM_P2
2021/07/02 00:00:55;;;;;;;;;1.67;1.67;;;;;26.24;43.47;100966.72;5074071;28;45469;-68
2021/07/02 00:03:21;;;;;;;;;1.67;1.67;;;;;26.23;43.67;100964.94;5074553;27;45411;-68
2021/07/02 00:05:46;;;;;;;;;0.00;0.00;;;;;26.21;43.66;100952.34;5059098;28;46749;-68
2021/07/02 00:08:11;;;;;;;;;1.50;1.50;;;;;26.22;43.55;100960.47;5077408;28;45440;-69
2021/07/02 00:10:37;;;;;;;;;0.00;0.00;;;;;26.23;43.62;100955.88;5077382;28;45626;-68
2021/07/02 00:13:02;;;;;;;;;1.50;1.00;;;;;26.21;43.45;100957.81;5077656;28;45795;-68
2021/07/02 00:15:28;;;;;;;;;1.75;1.00;;;;;26.21;43.63;100957.81;5058413;28;45914;-68
2021/07/02 00:17:53;;;;;;;;;0.00;0.00;;;;;26.23;43.62;100955.88;5077151;28;45640;-68
2021/07/02 00:20:19;;;;;;;;;0.75;0.75;;;;;26.21;43.61;100964.13;5077258;28;45473;-68
2021/07/02 00:22:44;;;;;;;;;0.75;0.75;;;;;26.19;43.70;100955.13;5076118;28;45437;-68
2021/07/02 00:25:10;;;;;;;;;0.50;0.50;;;;;26.21;43.83;100968.72;5076900;28;45444;-68
2021/07/02 00:27:35;;;;;;;;;0.75;0.25;;;;;26.20;43.56;100966.91;5076881;28;45795;-68
2021/07/02 00:30:03;;;;;;;;;0.75;0.75;;;;;26.19;43.47;100965.16;5076815;28;45553;-68
2021/07/02 00:32:28;;;;;;;;;0.00;0.00;;;;;26.18;43.78;100966.09;5077088;28;45428;-68
2021/07/02 00:34:54;;;;;;;;;0.00;0.00;;;;;26.18;43.66;100974.28;5076763;28;45388;-68
2021/07/02 00:37:19;;;;;;;;;0.00;0.00;;;;;26.18;43.71;100971.56;5058714;28;45402;-68
2021/07/02 00:39:44;;;;;;;;;0.75;0.75;;;;;26.17;43.73;100970.69;5077148;28;45352;-68
2021/07/02 00:42:11;;;;;;;;;1.00;1.00;;;;;26.15;43.30;100969.88;5077202;28;45444;-68
2021/07/02 00:44:44;;;;;;;;;0.00;0.00;;;;;26.18;43.62;100974.28;5077003;28;45436;-68
2021/07/02 00:47:11;;;;;;;;;0.50;0.50;;;;;26.17;43.94;100975.25;5058551;28;45493;-68
2021/07/02 00:49:37;;;;;;;;;0.75;0.00;;;;;26.14;43.66;100971.72;5076858;28;44797;-68
2021/07/02 00:52:04;;;;;;;;;0.25;0.00;;;;;26.17;43.65;100978.00;5076869;28;45475;-68
2021/07/02 00:54:35;;;;;;;;;1.00;1.00;;;;;26.15;43.77;100970.75;5076604;28;46147;-68
2021/07/02 00:57:02;;;;;;;;;1.75;1.75;;;;;26.15;43.98;100973.47;5076982;28;45776;-68
2021/07/02 00:59:28;;;;;;;;;0.00;0.00;;;;;26.14;43.93;100970.84;5058840;28;45392;-68
2021/07/02 01:01:53;;;;;;;;;0.75;0.75;;;;;26.13;43.66;100967.22;5077003;28;45552;-68
2021/07/02 01:04:19;;;;;;;;;1.25;1.25;;;;;26.12;43.75;100965.47;5058215;28;45503;-68
2021/07/02 01:06:46;;;;;;;;;0.75;0.75;;;;;26.12;43.81;100973.63;5076567;28;45779;-68
2021/07/02 01:09:11;;;;;;;;;1.00;1.00;;;;;26.10;43.70;100970.09;5076314;28;45654;-68
2021/07/02 01:11:38;;;;;;;;;0.50;0.50;;;;;26.10;43.70;100970.09;5076635;28;45561;-68
2021/07/02 01:14:03;;;;;;;;;1.00;1.00;;;;;26.10;43.65;100967.38;5076113;28;45369;-68
2021/07/02 01:16:35;;;;;;;;;1.00;1.00;;;;;26.11;43.96;100974.56;5076282;28;45813;-68
2021/07/02 01:19:00;;;;;;;;;0.75;0.75;;;;;26.10;43.80;100983.72;5076499;28;45443;-68
2021/07/02 01:21:26;;;;;;;;;0.75;0.75;;;;;26.06;44.07;100965.75;5076229;28;47663;-68
2021/07/02 01:23:51;;;;;;;;;1.00;1.00;;;;;26.07;43.91;100972.94;5074682;28;45464;-68
2021/07/02 01:26:24;;;;;;;;;0.75;0.75;;;;;26.07;43.88;100962.06;5076261;28;45454;-68
2021/07/02 01:28:50;;;;;;;;;1.00;1.00;;;;;26.05;43.87;100968.53;5057949;28;45410;-67
2021/07/02 01:31:15;;;;;;;;;0.75;0.75;;;;;26.03;43.79;100963.16;5076324;28;45529;-67
2021/07/02 01:33:41;;;;;;;;;0.00;0.00;;;;;26.06;43.76;100971.19;5076010;28;45441;-67
2021/07/02 01:36:08;;;;;;;;;1.00;1.00;;;;;26.05;44.08;100966.69;5057546;28;45786;-67
2021/07/02 01:38:34;;;;;;;;;1.33;1.33;;;;;26.05;43.90;100961.25;5076118;28;45428;-68
2021/07/02 01:41:00;;;;;;;;;1.75;1.75;;;;;26.04;43.88;100964.94;5057644;28;45394;-68
2021/07/02 01:43:26;;;;;;;;;1.00;1.00;;;;;26.04;44.13;100966.78;5075908;28;45463;-68
2021/07/02 01:45:53;;;;;;;;;0.75;0.75;;;;;26.01;43.81;100962.34;5041289;28;45412;-68
2021/07/02 01:48:19;;;;;;;;;1.50;0.75;;;;;26.02;43.65;100952.34;5076041;28;45492;-67
2021/07/02 01:50:45;;;;;;;;;2.75;2.00;;;;;26.02;43.96;100952.34;5057943;28;45421;-67
2021/07/02 01:53:11;;;;;;;;;1.00;1.00;;;;;26.01;44.08;100956.91;5075768;28;46366;-67
2021/07/02 01:55:36;;;;;;;;;1.25;1.25;;;;;26.02;43.95;100946.91;5057478;28;44848;-67
2021/07/02 01:58:02;;;;;;;;;0.50;0.50;;;;;26.01;44.11;100945.13;5075761;28;45696;-67
2021/07/02 02:00:36;;;;;;;;;1.25;1.25;;;;;26.01;44.02;100946.00;5076028;28;45389;-67
2021/07/02 02:03:02;;;;;;;;;1.00;1.00;;;;;25.99;44.19;100942.44;5056857;28;45536;-67
2021/07/02 02:05:27;;;;;;;;;1.00;1.00;;;;;26.00;43.66;100943.38;5057124;28;45484;-67
2021/07/02 02:07:52;;;;;;;;;0.75;0.75;;;;;26.00;44.02;100949.69;5075692;28;45424;-67
2021/07/02 02:10:18;;;;;;;;;1.25;1.25;;;;;25.99;43.98;100947.91;5075890;28;45559;-67
2021/07/02 02:12:43;;;;;;;;;1.00;1.00;;;;;25.97;44.12;100932.59;5057152;28;46034;-67
2021/07/02 02:15:09;;;;;;;;;1.00;1.00;;;;;25.99;43.96;100941.56;5075014;28;45418;-67
2021/07/02 02:17:35;;;;;;;;;0.50;0.50;;;;;25.97;43.78;100944.38;5075678;28;45319;-67
2021/07/02 02:20:03;;;;;;;;;2.25;2.25;;;;;25.98;44.45;100942.56;5075469;28;45450;-67
2021/07/02 02:22:29;;;;;;;;;3.00;3.00;;;;;25.97;43.93;100940.75;5073857;28;45483;-67
2021/07/02 02:24:54;;;;;;;;;1.50;1.50;;;;;25.94;44.11;100939.06;5075290;28;44876;-67
2021/07/02 02:27:20;;;;;;;;;2.25;2.25;;;;;25.97;44.09;100946.22;5074757;28;45405;-67
2021/07/02 02:29:45;;;;;;;;;5.50;2.50;;;;;25.96;44.43;100939.00;5075749;28;45523;-67
2021/07/02 02:32:11;;;;;;;;;0.75;0.75;;;;;25.92;44.19;100936.41;5075174;28;46539;-67
2021/07/02 02:34:36;;;;;;;;;1.00;1.00;;;;;25.94;43.93;100933.63;5056910;28;45932;-67
2021/07/02 02:37:02;;;;;;;;;1.75;1.75;;;;;25.93;43.99;100940.00;5075273;28;45480;-67
2021/07/02 02:39:27;;;;;;;;;1.50;1.50;;;;;25.91;44.26;100928.31;5075516;28;45452;-68
2021/07/02 02:41:53;;;;;;;;;1.75;1.75;;;;;25.93;44.15;100942.75;5056630;28;47115;-67
2021/07/02 02:44:18;;;;;;;;;0.00;0.00;;;;;25.92;44.01;100950.03;5074915;28;45475;-67
2021/07/02 02:46:44;;;;;;;;;2.67;2.67;;;;;25.92;44.13;100946.44;5075209;28;45410;-68
2021/07/02 02:49:09;;;;;;;;;1.00;1.00;;;;;25.91;44.31;100940.09;5075050;28;45419;-68
2021/07/02 02:51:35;;;;;;;;;1.50;1.50;;;;;25.91;44.13;100933.75;5056750;28;47456;-68
2021/07/02 02:54:00;;;;;;;;;1.00;1.00;;;;;25.91;44.17;100928.31;5074900;28;45761;-68
2021/07/02 02:56:27;;;;;;;;;0.25;0.25;;;;;25.91;44.19;100933.75;5075389;28;45421;-68
2021/07/02 02:58:52;;;;;;;;;1.25;1.25;;;;;25.90;44.00;100930.16;5075350;28;45500;-66
2021/07/02 03:01:18;;;;;;;;;1.33;1.33;;;;;25.90;44.07;100929.28;5075087;28;45715;-67
2021/07/02 03:03:43;;;;;;;;;0.67;0.67;;;;;25.89;44.36;100930.19;5056516;28;45439;-67
2021/07/02 03:06:09;;;;;;;;;1.00;1.00;;;;;25.90;44.20;100932.00;5074844;28;45594;-67
2021/07/02 03:08:34;;;;;;;;;1.67;1.67;;;;;25.89;44.20;100935.63;5075168;28;44813;-67
2021/07/02 03:11:00;;;;;;;;;1.00;1.00;;;;;25.86;44.36;100914.00;5074509;28;45461;-67
2021/07/02 03:13:25;;;;;;;;;0.00;0.00;;;;;25.88;44.44;100922.97;5074867;28;45496;-67
2021/07/02 03:15:52;;;;;;;;;2.00;2.00;;;;;25.86;44.25;100923.03;5074920;28;45867;-67
2021/07/02 03:18:17;;;;;;;;;0.67;0.67;;;;;25.87;43.91;100921.19;5074579;28;45480;-67
2021/07/02 03:20:44;;;;;;;;;1.00;1.00;;;;;25.87;44.24;100915.75;5074676;28;45695;-67
2021/07/02 03:23:10;;;;;;;;;1.00;1.00;;;;;25.88;44.39;100921.13;5073105;28;45339;-67
2021/07/02 03:25:35;;;;;;;;;1.50;1.50;;;;;25.86;44.15;100916.72;5074702;28;45744;-67
2021/07/02 03:28:00;;;;;;;;;0.67;0.67;;;;;25.87;44.30;100921.19;5056691;28;45571;-67
2021/07/02 03:30:26;;;;;;;;;1.00;1.00;;;;;25.85;44.59;100923.13;5074415;28;46300;-67
2021/07/02 03:32:51;;;;;;;;;1.67;1.67;;;;;25.86;44.37;100924.91;5074201;28;45467;-67
2021/07/02 03:35:16;;;;;;;;;1.00;1.00;;;;;25.84;44.64;100924.97;5074449;28;45411;-67
2021/07/02 03:37:42;;;;;;;;;2.67;2.67;;;;;25.84;44.47;100921.34;5075679;28;45436;-67
2021/07/02 03:40:09;;;;;;;;;3.25;2.00;;;;;25.83;44.29;100923.16;5077998;28;45393;-67
2021/07/02 03:42:35;;;;;;;;;1.75;1.75;;;;;25.83;44.30;100927.75;5059751;28;45454;-68
2021/07/02 03:45:00;;;;;;;;;1.67;1.67;;;;;25.79;44.63;100912.50;5077935;28;45444;-67
2021/07/02 03:47:26;;;;;;;;;3.33;3.33;;;;;25.80;44.00;100922.47;5078036;28;45385;-68
2021/07/02 03:49:52;;;;;;;;;3.00;3.00;;;;;25.79;44.48;100912.50;5059250;28;45811;-68
2021/07/02 03:52:17;;;;;;;;;1.25;1.25;;;;;25.81;44.40;100916.03;5042415;28;45568;-67
2021/07/02 03:54:42;;;;;;;;;2.67;2.67;;;;;25.79;44.70;100917.94;5078390;28;45863;-67
2021/07/02 03:57:11;;;;;;;;;2.75;2.75;;;;;25.79;44.56;100923.41;5077833;28;45457;-68
2021/07/02 03:59:48;;;;;;;;;3.00;3.00;;;;;25.79;44.39;100929.72;5077627;28;45542;-68
2021/07/02 04:02:16;;;;;;;;;2.00;2.00;;;;;25.77;44.73;100926.19;5077595;27;45440;-67
2021/07/02 04:05:01;;;;;;;;;3.00;3.00;;;;;25.77;44.53;100933.47;5077447;28;45456;-68
2021/07/02 04:07:28;;;;;;;;;2.67;2.67;;;;;25.74;44.48;100938.13;5077785;28;45704;-66
2021/07/02 04:09:53;;;;;;;;;6.67;4.00;;;;;25.74;44.89;100935.41;5077626;28;45450;-67
2021/07/02 04:12:41;;;;;;;;;3.33;3.33;;;;;25.74;44.67;100931.78;5077182;28;45427;-67
2021/07/02 04:15:07;;;;;;;;;4.00;4.00;;;;;25.72;44.94;100940.03;5059602;28;45411;-68
2021/07/02 04:17:33;;;;;;;;;4.33;4.33;;;;;25.71;44.68;100942.81;5077893;28;45187;-67
2021/07/02 04:19:58;;;;;;;;;3.00;3.00;;;;;25.72;44.74;100942.75;5077515;28;45514;-67
2021/07/02 04:22:24;;;;;;;;;4.00;4.00;;;;;25.72;44.83;100948.19;5077437;28;45457;-67
2021/07/02 04:24:50;;;;;;;;;4.00;4.00;;;;;25.71;44.79;100949.16;5076094;28;45562;-67
2021/07/02 04:27:16;;;;;;;;;2.50;2.50;;;;;25.70;44.68;100947.38;5077603;28;45767;-68
2021/07/02 04:29:45;;;;;;;;;4.50;4.50;;;;;25.69;44.92;100945.63;5077100;28;45458;-67
2021/07/02 04:32:10;;;;;;;;;3.33;3.33;;;;;25.67;44.92;100947.53;5077305;28;45481;-68
2021/07/02 04:34:37;;;;;;;;;3.00;3.00;;;;;25.67;44.89;100958.44;5077283;28;45412;-68
2021/07/02 04:37:03;;;;;;;;;3.75;3.00;;;;;25.65;45.15;100952.19;5077359;28;45848;-68
2021/07/02 04:39:28;;;;;;;;;4.50;4.50;;;;;25.65;44.97;100952.19;5076753;28;45567;-68
2021/07/02 04:41:54;;;;;;;;;2.75;2.75;;;;;25.65;44.96;100959.44;5076845;28;45378;-68
2021/07/02 04:44:19;;;;;;;;;3.50;3.50;;;;;25.65;44.90;100957.63;5077083;28;45368;-68
2021/07/02 04:46:46;;;;;;;;;4.00;3.00;;;;;25.64;44.92;100947.66;5077278;28;45518;-68
2021/07/02 04:49:12;;;;;;;;;3.00;3.00;;;;;25.65;44.97;100954.91;5075965;28;46156;-68
2021/07/02 04:51:37;;;;;;;;;3.67;3.67;;;;;25.66;45.15;100956.66;5076969;28;45484;-68
2021/07/02 04:54:03;;;;;;;;;3.33;3.33;;;;;25.58;45.11;100937.06;5077041;28;45820;-68
2021/07/02 04:56:28;;;;;;;;;4.00;4.00;;;;;25.65;45.09;100949.44;5077077;28;45489;-68
2021/07/02 04:58:57;;;;;;;;;2.67;2.67;;;;;25.66;45.12;100955.78;5076652;28;45925;-68
2021/07/02 05:01:24;;;;;;;;;3.67;3.67;;;;;25.67;45.06;100952.09;5076727;28;45471;-68
2021/07/02 05:03:50;;;;;;;;;4.00;4.00;;;;;25.66;45.08;100953.06;5076564;27;44831;-68
2021/07/02 05:06:16;;;;;;;;;3.00;3.00;;;;;25.65;45.15;100949.44;5076970;28;45381;-68
2021/07/02 05:08:42;;;;;;;;;2.67;2.67;;;;;25.66;45.30;100959.38;5076673;28;45511;-68
2021/07/02 05:11:11;;;;;;;;;5.00;5.00;;;;;25.67;45.40;100962.97;5058181;28;45825;-68
2021/07/02 05:13:37;;;;;;;;;2.67;2.67;;;;;25.67;45.26;100957.53;5076839;28;45327;-69
2021/07/02 05:16:06;;;;;;;;;4.00;4.00;;;;;25.66;45.71;100962.09;5076927;28;45401;-68
2021/07/02 05:18:31;;;;;;;;;2.00;2.00;;;;;25.66;45.16;100959.38;5076481;28;46119;-68
2021/07/02 05:20:56;;;;;;;;;2.67;2.67;;;;;25.67;45.19;100961.16;5076438;28;45479;-68
2021/07/02 05:23:22;;;;;;;;;3.00;3.00;;;;;25.66;45.31;100951.22;5075318;28;45367;-69
2021/07/02 05:25:47;;;;;;;;;4.67;4.67;;;;;25.67;45.29;100953.00;5076846;28;45517;-69
2021/07/02 05:28:12;;;;;;;;;3.33;3.33;;;;;25.68;45.38;100948.41;5058283;28;45761;-68
2021/07/02 05:30:38;;;;;;;;;4.67;4.67;;;;;25.68;45.22;100959.31;5076591;28;45894;-68
2021/07/02 05:33:03;;;;;;;;;3.33;3.33;;;;;25.67;45.55;100957.53;5076659;28;45436;-69
2021/07/02 05:35:29;;;;;;;;;4.00;4.00;;;;;25.67;45.37;100947.53;5076337;28;44860;-68
2021/07/02 05:37:54;;;;;;;;;5.33;5.33;;;;;25.68;45.13;100951.16;5076092;28;46151;-68
2021/07/02 05:40:20;;;;;;;;;3.00;3.00;;;;;25.68;45.50;100949.28;5076272;28;45408;-68
2021/07/02 05:42:45;;;;;;;;;3.00;3.00;;;;;25.67;45.41;100953.00;5076159;28;45405;-68
2021/07/02 05:45:11;;;;;;;;;4.67;4.67;;;;;25.67;45.55;100955.72;5076580;28;45413;-68
2021/07/02 05:47:58;;;;;;;;;3.67;3.67;;;;;25.68;45.09;100954.75;5075932;28;45429;-68
2021/07/02 05:50:23;;;;;;;;;3.00;3.00;;;;;25.69;45.44;100956.53;5076247;28;45575;-70
2021/07/02 05:52:51;;;;;;;;;4.00;4.00;;;;;25.69;45.42;100956.53;5076419;28;45411;-68
2021/07/02 05:55:16;;;;;;;;;4.67;4.67;;;;;25.70;45.54;100961.00;5076358;28;45476;-69
2021/07/02 05:57:42;;;;;;;;;2.67;2.67;;;;;25.71;45.25;100960.06;5075950;28;45467;-69
2021/07/02 06:00:09;;;;;;;;;4.00;4.00;;;;;25.71;45.50;100956.44;5075882;28;45457;-68
2021/07/02 06:02:34;;;;;;;;;4.00;4.00;;;;;25.74;45.68;100950.88;5075091;27;45409;-68
2021/07/02 06:05:07;;;;;;;;;4.00;4.00;;;;;25.77;45.21;100952.56;5076401;28;45430;-68
2021/07/02 06:07:46;;;;;;;;;0.67;0.67;;;;;25.78;45.57;100955.22;5075941;28;46115;-68
2021/07/02 06:10:14;;;;;;;;;4.33;4.33;;;;;25.79;45.36;100956.09;5074516;28;45474;-67
2021/07/02 06:12:40;;;;;;;;;12.67;12.67;;;;;25.79;45.33;100958.81;5057609;28;45527;-68
2021/07/02 06:15:06;;;;;;;;;18.33;18.33;;;;;25.74;45.76;100959.91;5057722;28;45479;-66
2021/07/02 06:17:31;;;;;;;;;19.67;18.33;;;;;25.71;45.55;100960.06;5075716;28;45518;-66
2021/07/02 06:19:57;;;;;;;;;27.33;25.33;;;;;25.69;46.00;100958.34;5075654;28;45645;-66
2021/07/02 06:22:23;;;;;;;;;28.00;27.00;;;;;25.65;45.95;100959.44;5075963;28;45480;-67
2021/07/02 06:24:48;;;;;;;;;29.67;29.33;;;;;25.57;46.09;100962.50;5074617;28;45412;-66
2021/07/02 06:27:14;;;;;;;;;28.00;26.00;;;;;25.50;46.33;100956.47;5075273;28;45946;-67
2021/07/02 06:29:39;;;;;;;;;32.67;31.00;;;;;25.42;46.75;100952.31;5074947;28;45404;-66
2021/07/02 06:32:05;;;;;;;;;30.00;29.33;;;;;25.38;47.34;100950.69;5075348;28;45673;-67
2021/07/02 06:34:31;;;;;;;;;27.33;25.33;;;;;25.31;47.16;100955.53;5061517;28;45299;-66
2021/07/02 06:36:57;;;;;;;;;21.67;21.67;;;;;25.26;47.22;100954.81;5037530;28;46312;-67
2021/07/02 06:39:22;;;;;;;;;27.00;27.00;;;;;25.25;47.15;100961.22;5069298;28;45380;-67
2021/07/02 06:41:48;;;;;;;;;23.67;23.33;;;;;25.23;47.27;100964.03;5057225;28;45651;-68
2021/07/02 06:44:13;;;;;;;;;42.00;35.33;;;;;25.23;47.69;100957.66;5042150;28;45553;-67
2021/07/02 06:46:38;;;;;;;;;30.67;28.00;;;;;25.10;47.43;100965.47;5068589;28;45400;-67
2021/07/02 06:49:07;;;;;;;;;27.33;26.67;;;;;25.07;47.81;100962.88;5074587;28;45468;-67
2021/07/02 06:51:33;;;;;;;;;30.00;28.33;;;;;25.04;47.97;100963.00;5072005;28;45499;-67
2021/07/02 06:54:01;;;;;;;;;28.00;28.00;;;;;25.05;47.60;100962.06;5075434;28;45485;-67
2021/07/02 06:56:28;;;;;;;;;32.67;31.67;;;;;25.04;47.58;100960.28;5057386;28;47723;-69
2021/07/02 06:58:54;;;;;;;;;20.67;19.00;;;;;25.01;47.91;100966.75;5075186;28;45831;-66
2021/07/02 07:01:20;;;;;;;;;28.67;27.67;;;;;25.00;48.28;100959.50;5075558;28;45573;-68
2021/07/02 07:03:45;;;;;;;;;28.33;27.00;;;;;24.99;48.52;100959.59;5045836;28;45513;-69
2021/07/02 07:06:18;;;;;;;;;36.33;32.00;;;;;24.87;48.90;100963.72;5036888;28;47172;-66
2021/07/02 07:08:44;;;;;;;;;27.67;25.67;;;;;24.68;48.36;100960.88;5054528;28;45414;-65
2021/07/02 07:11:10;;;;;;;;;61.00;47.67;;;;;24.61;48.85;100976.56;5042616;28;45386;-67
2021/07/02 07:13:38;;;;;;;;;47.00;36.33;;;;;24.59;48.95;100973.00;5040199;28;45490;-68
2021/07/02 07:16:04;;;;;;;;;27.00;25.67;;;;;24.60;49.03;100965.72;5075240;28;45560;-67
2021/07/02 07:21:42;;;;;;;;;;;;;;;;;;;;;
2021/07/02 07:25:33;;;;;;;;;23.67;23.00;;;;;24.02;50.16;100949.91;5058767;28;45485;-67
2021/07/02 07:29:04;;;;;;;;;29.67;28.67;;;;;23.94;49.58;100958.34;5042636;28;45599;-70
2021/07/02 07:31:35;;;;;;;;;32.33;30.00;;;;;23.89;50.84;100960.31;5050249;28;45829;-67
2021/07/02 07:35:00;;;;;;;;;37.00;34.00;;;;;24.06;49.87;100973.28;5068319;28;45523;-71
2021/07/02 07:37:08;;;;;;;;;28.67;27.67;;;;;24.04;50.14;100975.16;5054906;28;45521;-71
2021/07/02 07:39:59;;;;;;;;;31.33;30.33;;;;;24.09;50.34;100967.72;5047322;28;45990;-68
2021/07/02 07:42:34;;;;;;;;;25.67;25.67;;;;;24.07;50.16;100980.47;5050179;28;45726;-68
2021/07/02 07:45:30;;;;;;;;;27.33;27.33;;;;;24.08;50.31;100983.13;5045216;28;45552;-68
2021/07/02 07:48:10;;;;;;;;;23.00;22.67;;;;;24.16;50.57;100977.41;5072287;27;45314;-69
2021/07/02 07:54:11;;;;;;;;;29.33;29.00;;;;;24.39;49.97;100978.34;5003001;28;45519;-66
2021/07/02 07:56:56;;;;;;;;;28.33;26.33;;;;;24.46;50.00;100980.75;4996214;28;45550;-70
2021/07/02 07:59:27;;;;;;;;;24.00;22.67;;;;;24.47;49.54;100977.06;5000020;28;45594;-67
2021/07/02 08:02:11;;;;;;;;;23.33;21.33;;;;;24.60;49.75;100985.66;4995409;28;45724;-68
2021/07/02 08:05:31;;;;;;;;;17.67;17.67;;;;;24.65;49.65;100985.47;4991146;28;45534;-68
2021/07/02 08:15:34;;;;;;;;;;;;;;;;;;;;;
2021/07/02 08:18:12;;;;;;;;;24.33;24.33;;;;;24.63;48.84;100968.34;4781405;29;45609;-68
2021/07/02 08:20:55;;;;;;;;;21.67;21.67;;;;;24.75;49.10;100976.00;4771992;29;45499;-69
2021/07/02 08:35:00;;;;;;;;;30.33;30.00;;;;;24.91;48.10;100951.75;4846033;29;44894;-70
2021/07/02 08:37:33;;;;;;;;;22.00;20.67;;;;;25.02;48.25;100964.91;4836903;29;45632;-67
2021/07/02 08:40:35;;;;;;;;;17.67;17.33;;;;;25.16;47.55;100968.78;4920911;28;45374;-69
2021/07/02 08:43:47;;;;;;;;;;;;;;;;;;;;;
2021/07/02 08:46:52;;;;;;;;;;;;;;;;;;;;;
2021/07/02 08:49:56;;;;;;;;;18.00;18.00;;;;;25.53;47.58;100974.50;5020274;28;65558;-71
2021/07/02 08:52:36;;;;;;;;;23.00;22.33;;;;;25.42;47.11;100946.88;4939688;28;47583;-70
2021/07/02 08:55:08;;;;;;;;;13.67;13.00;;;;;25.49;46.91;100964.69;4953700;28;45488;-70
2021/07/02 08:57:37;;;;;;;;;24.33;21.67;;;;;25.41;47.17;100945.09;4927935;28;44895;-71
2021/07/02 09:01:08;;;;;;;;;19.00;18.00;;;;;25.48;47.25;100962.94;4953893;28;45563;-68
2021/07/02 09:03:38;;;;;;;;;24.67;22.33;;;;;25.52;47.37;100948.22;4918624;28;45538;-66
2021/07/02 09:06:34;;;;;;;;;14.00;14.00;;;;;25.62;47.37;100960.47;4902881;28;45537;-71
2021/07/02 09:09:10;;;;;;;;;20.67;19.00;;;;;25.52;47.19;100945.50;4905943;28;45275;-68
2021/07/02 09:11:41;;;;;;;;;29.67;28.67;;;;;25.52;46.94;100953.69;4906556;28;44924;-68
2021/07/02 09:14:25;;;;;;;;;26.00;26.00;;;;;25.51;47.23;100960.06;4928682;28;45743;-73
2021/07/02 09:16:53;;;;;;;;;20.67;18.33;;;;;25.55;47.28;100961.69;4920719;28;45146;-70
2021/07/02 09:20:10;;;;;;;;;19.00;19.00;;;;;25.58;47.04;100963.41;4902547;29;45657;-70
2021/07/02 09:26:39;;;;;;;;;19.67;19.67;;;;;25.66;46.31;100951.22;4953917;28;45566;-65
2021/07/02 09:29:22;;;;;;;;;16.33;16.33;;;;;25.66;45.87;100951.22;4977374;28;45918;-66
2021/07/02 09:31:58;;;;;;;;;19.33;18.00;;;;;25.69;45.97;100956.53;4972813;28;45569;-65
2021/07/02 09:37:55;;;;;;;;;19.00;19.00;;;;;25.92;45.54;100952.75;4978310;28;45577;-67
2021/07/02 09:40:27;;;;;;;;;16.00;15.33;;;;;26.03;45.84;100948.66;5022284;28;46199;-65
2021/07/02 09:42:59;;;;;;;;;18.00;18.00;;;;;26.11;45.72;100947.31;5037412;28;45410;-68
2021/07/02 09:45:25;;;;;;;;;15.33;15.33;;;;;26.18;45.21;100942.47;5033428;28;45911;-66
2021/07/02 09:48:25;;;;;;;;;17.33;17.00;;;;;26.11;45.18;100914.59;5035968;28;45394;-71
2021/07/02 09:50:52;;;;;;;;;14.00;14.00;;;;;26.32;44.52;100933.66;5050036;28;45404;-66
2021/07/02 09:53:24;;;;;;;;;14.33;14.33;;;;;26.40;44.34;100936.88;5036175;28;45442;-65
2021/07/02 09:55:52;;;;;;;;;13.67;13.00;;;;;26.48;44.70;100941.94;5035518;28;45314;-65
2021/07/02 09:58:26;;;;;;;;;13.67;13.67;;;;;26.53;44.14;100942.59;5036445;28;45480;-67
2021/07/02 10:00:53;;;;;;;;;14.00;14.00;;;;;26.58;44.03;100935.09;5034224;28;45419;-66
2021/07/02 10:03:26;;;;;;;;;16.33;14.67;;;;;26.69;43.83;100931.84;5033478;28;45589;-66
2021/07/02 10:05:54;;;;;;;;;14.33;14.33;;;;;26.77;43.91;100926.88;5031815;28;45344;-67
2021/07/02 10:08:25;;;;;;;;;14.00;13.00;;;;;26.85;43.37;100927.38;5035164;28;45469;-66
2021/07/02 10:10:52;;;;;;;;;13.00;13.00;;;;;26.88;43.36;100927.19;5035973;28;45389;-66
2021/07/02 10:13:21;;;;;;;;;15.33;14.33;;;;;26.99;43.18;100928.53;5036785;28;45361;-66
2021/07/02 10:15:59;;;;;;;;;10.00;10.00;;;;;27.10;43.08;100926.09;5038662;28;45412;-70
2021/07/02 10:18:27;;;;;;;;;17.33;16.67;;;;;27.21;42.81;100931.91;5017785;28;47981;-66
2021/07/02 10:20:55;;;;;;;;;12.33;12.33;;;;;27.30;42.37;100930.56;5036944;28;45453;-67
2021/07/02 10:23:48;;;;;;;;;16.00;14.33;;;;;27.32;42.20;100929.50;5036452;28;45449;-66
2021/07/02 10:26:15;;;;;;;;;11.67;11.67;;;;;27.31;42.58;100924.16;5049888;28;45437;-66
2021/07/02 10:28:43;;;;;;;;;15.33;15.33;;;;;27.29;42.30;100931.53;5072633;28;45591;-67
2021/07/02 10:31:10;;;;;;;;;12.33;12.00;;;;;27.27;41.95;100931.63;5056494;28;45609;-67
2021/07/02 10:33:41;;;;;;;;;9.33;9.00;;;;;27.29;42.65;100937.88;5057471;28;45419;-66
2021/07/02 10:36:07;;;;;;;;;10.00;9.00;;;;;27.29;41.86;100932.41;5075919;28;45533;-68
2021/07/02 10:38:39;;;;;;;;;11.33;11.33;;;;;27.31;41.86;100933.22;5057868;28;45503;-67
2021/07/02 10:41:13;;;;;;;;;18.00;16.00;;;;;27.33;42.00;100935.88;5075838;28;45591;-67
2021/07/02 10:44:08;;;;;;;;;13.00;11.67;;;;;27.39;42.18;100941.00;5075806;28;45467;-66
2021/07/02 10:46:35;;;;;;;;;16.33;15.67;;;;;27.51;41.81;100936.72;5076097;28;45485;-68
2021/07/02 10:49:14;;;;;;;;;11.67;11.67;;;;;27.53;41.84;100940.25;5075110;28;46119;-65
2021/07/02 10:51:41;;;;;;;;;13.00;13.00;;;;;27.54;41.42;100931.09;5075309;28;45402;-66
2021/07/02 10:54:13;;;;;;;;;15.33;15.33;;;;;27.55;41.34;100930.13;5057442;28;45408;-67
2021/07/02 10:56:43;;;;;;;;;13.67;11.67;;;;;27.53;41.70;100930.22;5075752;28;45453;-67
2021/07/02 10:59:09;;;;;;;;;14.00;14.00;;;;;27.55;41.87;100932.84;5075958;28;45402;-66
2021/07/02 11:01:36;;;;;;;;;16.33;16.33;;;;;27.58;40.88;100924.50;5078595;28;45419;-65
2021/07/02 11:04:40;;;;;;;;;16.67;16.67;;;;;27.53;41.63;100923.84;5078405;28;45794;-66
2021/07/02 11:07:08;;;;;;;;;10.00;8.67;;;;;27.46;42.05;100922.44;5058926;28;45756;-66
2021/07/02 11:09:49;;;;;;;;;10.33;10.33;;;;;27.49;41.56;100924.97;5058004;28;45484;-67
2021/07/02 11:12:27;;;;;;;;;9.00;9.00;;;;;27.45;41.52;100910.63;5074498;28;45475;-67
2021/07/02 11:14:52;;;;;;;;;12.33;12.00;;;;;27.52;40.91;100912.06;5056844;28;45531;-66
2021/07/02 11:17:27;;;;;;;;;7.33;7.00;;;;;27.54;41.06;100903.78;5074355;28;45516;-67
2021/07/02 11:20:04;;;;;;;;;8.00;8.00;;;;;27.50;41.12;100907.66;5072763;28;46025;-68
2021/07/02 11:22:31;;;;;;;;;13.33;13.33;;;;;27.56;40.98;100896.38;5073366;28;45529;-68
2021/07/02 11:25:03;;;;;;;;;14.00;14.00;;;;;27.66;40.78;100894.03;5068158;28;45492;-66
2021/07/02 11:27:44;;;;;;;;;15.33;14.67;;;;;27.63;40.82;100897.81;5053196;28;45781;-67
2021/07/02 11:30:18;;;;;;;;;17.00;15.00;;;;;27.60;40.57;100894.38;5058752;28;45490;-67
2021/07/02 11:32:49;;;;;;;;;8.00;8.00;;;;;27.61;41.41;100888.84;5074680;28;45448;-67
2021/07/02 11:35:20;;;;;;;;;7.00;7.00;;;;;27.68;40.87;100878.44;5059207;28;45447;-68
2021/07/02 11:38:13;;;;;;;;;14.33;14.33;;;;;27.68;39.70;100884.78;5054940;28;44915;-67
2021/07/02 11:40:38;;;;;;;;;12.00;11.33;;;;;27.67;39.01;100880.28;5054710;28;45688;-69
2021/07/02 11:43:08;;;;;;;;;10.00;10.00;;;;;27.72;40.79;100878.16;5054209;28;45402;-68
2021/07/02 11:45:56;;;;;;;;;13.33;13.33;;;;;27.77;38.22;100885.22;5067639;28;45500;-67
2021/07/02 11:48:24;;;;;;;;;12.00;12.00;;;;;27.80;39.53;100887.81;5075743;28;45551;-69
2021/07/02 11:50:56;;;;;;;;;16.00;16.00;;;;;27.85;39.70;100892.03;5074763;28;45625;-68
2021/07/02 11:53:47;;;;;;;;;14.67;13.33;;;;;27.89;38.83;100881.84;5059614;28;45412;-68
2021/07/02 11:56:24;;;;;;;;;12.33;12.33;;;;;27.92;39.47;100884.41;5076106;28;44805;-68
2021/07/02 11:59:06;;;;;;;;;13.67;11.67;;;;;27.99;39.16;100883.09;5053178;28;45428;-68
2021/07/02 12:01:43;;;;;;;;;14.33;13.33;;;;;28.00;38.63;100879.41;5072791;28;45564;-68
2021/07/02 12:04:20;;;;;;;;;7.00;7.00;;;;;27.93;39.23;100872.50;5059847;28;45517;-66
2021/07/02 12:06:50;;;;;;;;;14.67;10.67;;;;;27.86;38.82;100876.53;5058930;28;44902;-65
2021/07/02 12:09:20;;;;;;;;;12.67;12.67;;;;;27.85;38.43;100874.75;5057748;28;45445;-65
2021/07/02 12:11:52;;;;;;;;;14.00;14.00;;;;;27.79;37.84;100869.63;5057551;28;46641;-65
2021/07/02 12:14:29;;;;;;;;;14.33;13.00;;;;;27.69;38.17;100870.16;5064398;28;45598;-66